Time;durP1;ratioP1;P1;durP2;ratioP2;P2;SDS_P1;SDS_P2;PMS_P1;PMS_P2;Temp;Humidity;BMP_temperature;BMP_pressure;BME280_temperature;BME280_humidity;BME280_pressure;Samples;Min_cycle;Max_cycle;Signal;HPM_P1;HPM_P2
2022/02/10 00:16:06;;;;;;;8.25;5.82;;;;;;;6.95;79.90;99385.94;4818759;29;20590;-80
2022/02/10 00:21:25;;;;;;;9.98;6.28;;;;;;;6.99;80.55;99387.16;4853093;29;20061;-81
2022/02/10 00:24:14;;;;;;;8.93;6.20;;;;;;;6.95;80.32;99370.03;4835348;29;20030;-81
2022/02/10 00:34:55;;;;;;;9.75;6.10;;;;;;;6.98;80.58;99355.53;4850467;29;20056;-80
2022/02/10 00:37:25;;;;;;;8.20;6.50;;;;;;;6.97;80.75;99357.34;4837964;29;20490;-80
2022/02/10 00:42:19;;;;;;;10.55;5.90;;;;;;;6.94;80.09;99352.50;4853308;29;20040;-81
2022/02/10 00:44:44;;;;;;;8.82;6.03;;;;;;;6.99;80.00;99350.00;4836672;29;20041;-81
2022/02/10 00:47:10;;;;;;;8.20;7.07;;;;;;;7.04;80.19;99354.66;4853611;29;20037;-81
2022/02/10 00:49:35;;;;;;;9.32;6.78;;;;;;;7.03;79.62;99348.56;4852128;29;20041;-81
2022/02/10 00:52:04;;;;;;;7.35;6.50;;;;;;;7.03;80.25;99345.09;4851152;29;20053;-80
2022/02/10 00:54:29;;;;;;;9.45;6.75;;;;;;;7.00;80.29;99340.19;4850889;29;20502;-80
2022/02/10 00:56:56;;;;;;;10.15;6.97;;;;;;;7.06;80.74;99355.25;4850135;29;20061;-81
2022/02/10 00:59:45;;;;;;;13.90;6.75;;;;;;;7.03;80.46;99348.56;4851549;29;20200;-80
2022/02/10 01:12:50;;;;;;;7.35;6.07;;;;;;;7.00;79.95;99333.06;4849955;29;20089;-81
2022/02/10 01:31:41;;;;;;;8.18;6.28;;;;;;;7.01;80.03;99308.13;4853615;29;20053;-81
2022/02/10 01:34:06;;;;;;;14.52;6.97;;;;;;;7.05;79.99;99305.88;4868532;29;20101;-80
2022/02/10 01:36:32;;;;;;;10.02;5.85;;;;;;;7.06;80.69;99305.66;4857682;29;20030;-81
2022/02/10 01:38:57;;;;;;;8.95;5.68;;;;;;;7.08;79.81;99305.44;4855436;29;20105;-81
2022/02/10 01:58:11;;;;;;;9.43;5.95;;;;;;;7.00;80.45;99282.63;4856174;29;20120;-81
2022/02/10 02:03:26;;;;;;;13.40;6.55;;;;;;;6.95;80.05;99261.22;4856056;29;20033;-81
2022/02/10 02:06:21;;;;;;;7.95;5.72;;;;;;;6.97;79.95;99253.06;4854872;29;20046;-80
2022/02/10 02:08:40;;;;;;;9.13;6.32;;;;;;;6.92;80.22;99251.06;4853868;29;20092;-81
2022/02/10 02:11:05;;;;;;;7.68;6.13;;;;;;;6.92;80.23;99255.56;4866738;29;20085;-81
2022/02/10 02:13:31;;;;;;;7.22;5.47;;;;;;;6.89;80.11;99250.66;4854650;29;20451;-80
2022/02/10 02:15:57;;;;;;;7.88;5.88;;;;;;;6.89;80.15;99259.44;4859958;29;20037;-81
2022/02/10 02:18:23;;;;;;;13.77;7.20;;;;;;;6.87;80.01;99250.88;4857747;29;20043;-80
2022/02/10 02:20:52;;;;;;;9.20;6.07;;;;;;;6.84;80.66;99247.88;4855200;29;20402;-80
2022/02/10 02:23:19;;;;;;;11.07;6.00;;;;;;;6.77;80.27;99248.69;4854836;29;20037;-81
2022/02/10 02:25:47;;;;;;;11.63;5.82;;;;;;;6.81;79.38;99254.41;4837871;29;20069;-81
2022/02/10 02:28:14;;;;;;;6.10;5.50;;;;;;;6.77;80.04;99248.69;4853070;29;20056;-80
2022/02/10 02:30:44;;;;;;;8.10;6.10;;;;;;;6.74;79.83;99243.00;4836989;29;20061;-80
2022/02/10 03:05:42;;;;;;;9.93;5.72;;;;;;;6.66;80.38;99203.50;4854951;29;20052;-80
2022/02/10 03:08:15;;;;;;;7.68;5.25;;;;;;;6.66;80.50;99206.94;4840209;29;20037;-80
2022/02/10 03:13:12;;;;;;;9.23;5.85;;;;;;;6.70;80.39;99202.03;4855383;29;20041;-81
2022/02/10 03:16:08;;;;;;;6.40;5.72;;;;;;;6.66;80.00;99182.28;4854782;29;20052;-80
2022/02/10 04:04:54;;;;;;;10.40;6.30;;;;;;;6.46;80.14;99137.34;4851254;29;20033;-80
2022/02/10 04:10:00;;;;;;;9.85;6.00;;;;;;;6.22;80.74;99092.25;4836634;29;20038;-81
2022/02/10 04:14:56;;;;;;;10.40;6.32;;;;;;;6.38;80.21;99126.16;4850766;29;20078;-81
2022/02/10 04:20:33;;;;;;;10.25;6.70;;;;;;;6.30;80.20;99111.34;4849626;29;20044;-81
2022/02/10 04:30:44;;;;;;;10.75;7.07;;;;;;;6.20;80.27;99111.00;4839882;29;20045;-81
2022/02/10 05:00:36;;;;;;;12.27;7.78;;;;;;;5.82;80.89;99076.56;4873919;29;20044;-81
2022/02/10 05:16:39;;;;;;;11.65;7.53;;;;;;;5.59;80.49;99046.34;4852845;29;20044;-81
2022/02/10 05:31:18;;;;;;;13.23;8.50;;;;;;;5.58;80.60;99048.16;4849379;29;20044;-80
2022/02/10 05:35:36;;;;;;;12.15;7.65;;;;;;;5.50;80.28;99035.19;4854497;29;20130;-81
2022/02/10 05:57:03;;;;;;;13.98;8.20;;;;;;;5.38;80.87;99014.84;4847994;29;20129;-81
2022/02/10 07:58:29;;;;;;;19.83;10.10;;;;;;;5.41;80.18;99031.16;4856004;29;20052;-81
2022/02/10 08:49:56;;;;;;;14.63;9.77;;;;;;;5.85;79.22;98985.31;4846086;29;20446;-82
2022/02/10 08:55:23;;;;;;;13.52;9.38;;;;;;;5.91;78.92;98992.38;4858807;29;20036;-81
2022/02/10 09:11:27;;;;;;;14.48;10.27;;;;;;;6.04;79.66;99006.34;4858802;29;20070;-81
2022/02/10 09:17:03;;;;;;;16.23;9.18;;;;;;;6.19;80.00;98997.25;4869205;29;20048;-81
2022/02/10 09:19:41;;;;;;;15.70;9.55;;;;;;;6.23;79.38;98998.44;4856316;29;20040;-81
2022/02/10 09:53:22;;;;;;;12.02;9.43;;;;;;;6.43;78.25;99026.41;4859525;29;20085;-81
2022/02/10 09:57:53;;;;;;;13.95;10.02;;;;;;;6.46;78.48;99031.28;4857954;29;20060;-81
2022/02/10 10:03:10;;;;;;;11.68;9.05;;;;;;;6.41;78.66;99040.91;4860447;29;20275;-81
2022/02/10 10:05:46;;;;;;;15.15;10.75;;;;;;;6.43;78.20;99033.53;4874936;29;20057;-81
2022/02/10 10:08:34;;;;;;;17.00;10.95;;;;;;;6.42;77.80;99029.28;4854709;29;20057;-81
2022/02/10 10:19:54;;;;;;;15.77;10.43;;;;;;;6.43;78.45;99046.81;4874781;29;20069;-81
2022/02/10 10:53:50;;;;;;;17.05;11.13;;;;;;;6.40;77.96;99050.69;4862517;29;20521;-81
2022/02/10 10:58:40;;;;;;;15.00;10.25;;;;;;;6.41;78.27;99051.50;4876101;29;20041;-81
2022/02/10 11:43:41;;;;;;;18.50;12.10;;;;;;;6.67;77.81;99011.50;4857748;29;20124;-83
2022/02/10 14:12:51;;;;;;;22.85;13.40;;;;;;;7.20;78.74;99076.25;4853226;29;20045;-84
2022/02/10 14:15:30;;;;;;;20.80;12.43;;;;;;;7.13;78.75;99061.44;4848749;29;20037;-84
2022/02/10 14:18:46;;;;;;;18.55;12.65;;;;;;;7.10;79.00;99065.31;4863766;29;20497;-84
2022/02/10 14:26:32;;;;;;;18.55;12.50;;;;;;;7.08;78.62;99069.22;4858207;29;20034;-83
2022/02/10 14:28:31;;;;;;;16.25;12.82;;;;;;;7.10;78.87;99073.28;4860457;29;20063;-83
2022/02/10 14:30:56;;;;;;;17.60;11.93;;;;;;;7.11;78.52;99085.53;4859253;29;20090;-83
2022/02/10 14:33:26;;;;;;;18.15;12.63;;;;;;;7.09;78.42;99082.31;4858732;29;20110;-83
2022/02/10 15:53:37;;;;;;;6.22;5.25;;;;;;;6.74;79.94;99118.34;4871733;29;20064;-82
2022/02/10 16:17:12;;;;;;;4.82;4.40;;;;;;;6.68;80.47;99113.91;4857137;29;20051;-82
2022/02/10 16:19:38;;;;;;;8.55;4.60;;;;;;;6.69;80.13;99116.34;4854990;29;20120;-82
2022/02/10 16:22:11;;;;;;;5.82;3.97;;;;;;;6.69;80.17;99123.47;4854395;29;20061;-82
2022/02/10 16:24:48;;;;;;;4.63;4.03;;;;;;;6.68;80.08;99129.84;4874900;29;20025;-82
2022/02/10 16:27:55;;;;;;;4.40;4.00;;;;;;;6.67;79.95;99128.19;4855367;29;20036;-82
2022/02/10 16:30:12;;;;;;;5.18;4.20;;;;;;;6.68;80.28;99133.28;4860327;29;20137;-82
2022/02/10 16:32:41;;;;;;;4.32;4.00;;;;;;;6.54;80.36;99120.34;4851294;29;20557;-82
2022/02/10 16:35:08;;;;;;;4.70;4.20;;;;;;;6.64;80.68;99126.00;4858964;29;20036;-82
2022/02/10 16:37:35;;;;;;;4.30;3.85;;;;;;;6.61;80.32;99113.16;4839058;29;20026;-83
2022/02/10 16:40:01;;;;;;;4.78;3.70;;;;;;;6.58;79.81;99119.69;4853846;29;20029;-83
2022/02/10 16:42:26;;;;;;;4.65;3.63;;;;;;;6.63;80.24;99132.31;4838251;29;20132;-82
2022/02/10 16:44:52;;;;;;;4.78;4.15;;;;;;;6.62;80.32;99130.66;4851437;29;20082;-82
2022/02/10 16:47:18;;;;;;;5.10;4.15;;;;;;;6.61;80.10;99126.41;4838679;29;20046;-82
2022/02/10 16:49:50;;;;;;;4.72;4.25;;;;;;;6.61;80.43;99124.59;4856177;29;20044;-83
2022/02/10 16:52:27;;;;;;;5.03;3.95;;;;;;;6.63;80.64;99135.78;4835787;29;20049;-83
2022/02/10 16:55:05;;;;;;;5.22;4.72;;;;;;;6.55;80.02;99133.38;4854625;29;20029;-83
2022/02/10 16:57:45;;;;;;;5.10;4.18;;;;;;;6.59;80.62;99144.38;4853685;29;20041;-83
2022/02/10 17:00:45;;;;;;;5.80;4.15;;;;;;;6.57;80.62;99147.25;4854257;29;20038;-83
2022/02/10 17:03:21;;;;;;;5.38;3.63;;;;;;;6.59;80.76;99155.00;4858561;29;20116;-83
2022/02/10 17:14:04;;;;;;;4.95;4.13;;;;;;;6.53;80.03;99139.94;4856310;29;20056;-83
2022/02/10 17:14:38;;;;;;;8.38;4.93;;;;;;;6.54;80.69;99144.22;4864108;29;20044;-83
2022/02/10 17:19:35;;;;;;;5.70;4.65;;;;;;;6.51;80.99;99139.34;4869575;29;20046;-83
2022/02/10 17:27:23;;;;;;;6.15;5.03;;;;;;;6.42;80.91;99141.41;4839583;29;20521;-83
2022/02/10 17:32:44;;;;;;;6.57;4.97;;;;;;;6.39;80.73;99138.41;4856556;29;20041;-83
2022/02/10 17:51:28;;;;;;;6.85;5.57;;;;;;;6.38;81.10;99148.19;4852560;29;20064;-83
2022/02/10 17:53:55;;;;;;;8.45;6.57;;;;;;;6.40;80.57;99154.09;4848530;29;20034;-83
2022/02/10 17:56:21;;;;;;;8.60;6.20;;;;;;;6.35;81.19;99153.13;4850703;29;20402;-83
2022/02/10 17:58:48;;;;;;;8.90;6.53;;;;;;;6.39;80.76;99163.06;4847894;29;20482;-83
2022/02/10 18:01:14;;;;;;;7.57;5.68;;;;;;;6.35;81.06;99145.16;4842420;29;20030;-83
2022/02/10 18:03:40;;;;;;;6.55;5.60;;;;;;;6.35;80.72;99156.59;4846507;29;20036;-83
2022/02/10 18:08:45;;;;;;;7.88;5.70;;;;;;;6.35;80.79;99159.22;4850176;29;20029;-83
2022/02/10 18:16:31;;;;;;;8.13;6.40;;;;;;;6.40;80.49;99150.66;4839435;29;20493;-83
2022/02/10 18:19:05;;;;;;;7.20;5.90;;;;;;;6.37;80.75;99156.38;4866600;29;20089;-83
2022/02/10 18:21:54;;;;;;;6.72;6.07;;;;;;;6.40;80.53;99159.38;4854621;29;20046;-83
2022/02/10 19:07:34;;;;;;;11.70;7.32;;;;;;;6.29;81.38;99157.41;4851571;29;20344;-83
2022/02/10 19:10:03;;;;;;;10.75;7.75;;;;;;;6.29;80.86;99165.38;4861786;29;20033;-83
2022/02/10 19:12:33;;;;;;;10.48;7.90;;;;;;;6.21;80.95;99154.19;4847552;29;20029;-83
2022/02/10 19:15:13;;;;;;;12.18;8.55;;;;;;;6.28;81.12;99165.59;4843483;29;20029;-83
2022/02/10 19:17:38;;;;;;;11.93;8.63;;;;;;;6.27;81.08;99174.59;4846725;29;20033;-82
2022/02/10 19:20:05;;;;;;;15.13;8.35;;;;;;;6.26;80.70;99180.88;4830788;29;20422;-83
2022/02/10 19:22:30;;;;;;;14.38;8.68;;;;;;;6.28;80.40;99173.53;4847586;29;20041;-83
2022/02/10 19:24:56;;;;;;;10.80;7.72;;;;;;;6.22;80.95;99163.78;4848390;29;20057;-82
2022/02/10 19:27:22;;;;;;;11.00;7.95;;;;;;;6.31;80.90;99176.56;4832065;29;20406;-83
2022/02/10 19:29:48;;;;;;;10.93;8.32;;;;;;;6.21;81.24;99156.84;4845584;29;20033;-83
2022/02/10 19:32:17;;;;;;;12.77;8.38;;;;;;;6.27;80.57;99161.31;4847638;29;20034;-82
2022/02/10 19:34:43;;;;;;;13.23;9.82;;;;;;;6.23;80.53;99152.16;4849159;29;20462;-82
2022/02/10 19:37:10;;;;;;;16.50;9.32;;;;;;;6.05;80.79;99124.53;4848840;29;20506;-82
2022/02/10 19:39:40;;;;;;;13.52;9.70;;;;;;;6.27;80.34;99166.63;4870180;29;20053;-83
2022/02/10 19:42:05;;;;;;;10.93;8.50;;;;;;;6.27;80.92;99169.28;4856900;29;20030;-83
2022/02/10 19:44:33;;;;;;;15.25;9.07;;;;;;;6.22;80.82;99147.88;4856915;29;20973;-82
2022/02/10 19:46:59;;;;;;;12.35;9.18;;;;;;;6.23;81.04;99157.44;4844565;29;20088;-82
2022/02/10 19:49:25;;;;;;;10.07;7.97;;;;;;;6.02;80.43;99127.63;4858451;29;20125;-82
2022/02/10 19:51:51;;;;;;;10.25;8.27;;;;;;;6.24;80.53;99167.88;4858379;29;20029;-83
2022/02/10 19:54:23;;;;;;;11.00;7.63;;;;;;;6.24;80.87;99172.34;4853481;29;20036;-83
2022/02/10 19:56:50;;;;;;;11.27;8.68;;;;;;;6.25;80.97;99176.59;4870065;29;20128;-83
2022/02/10 19:59:19;;;;;;;9.27;7.45;;;;;;;6.25;81.08;99180.06;4855577;29;20072;-82
2022/02/10 20:01:45;;;;;;;10.90;8.90;;;;;;;6.26;81.45;99175.59;4856060;29;20033;-82
2022/02/10 20:04:11;;;;;;;11.30;8.13;;;;;;;6.21;80.61;99156.84;4857502;29;20033;-82
2022/02/10 20:06:36;;;;;;;11.77;7.93;;;;;;;6.24;81.19;99172.34;4853073;29;20028;-82
2022/02/10 20:09:04;;;;;;;9.65;7.35;;;;;;;6.18;80.72;99163.38;4844996;29;20033;-82
2022/02/10 20:11:29;;;;;;;9.77;7.13;;;;;;;6.18;81.09;99168.69;4848672;29;20062;-82
2022/02/10 20:13:55;;;;;;;11.95;7.65;;;;;;;6.12;81.29;99158.13;4820044;29;20045;-82
2022/02/10 20:16:20;;;;;;;10.68;7.43;;;;;;;6.19;81.31;99159.72;4814672;29;20041;-83
2022/02/10 20:18:48;;;;;;;11.18;7.82;;;;;;;6.10;81.25;99157.53;4849726;29;20041;-83
2022/02/10 20:21:14;;;;;;;9.70;7.30;;;;;;;6.03;81.23;99153.09;4842541;29;20098;-82
2022/02/10 20:23:40;;;;;;;8.07;6.22;;;;;;;6.09;80.93;99162.03;4848913;29;20034;-82
2022/02/10 20:26:05;;;;;;;10.75;7.68;;;;;;;6.17;80.64;99175.03;4849030;29;20041;-82
2022/02/10 20:28:40;;;;;;;8.68;6.78;;;;;;;6.11;81.00;99159.16;4837200;29;20044;-82
2022/02/10 20:31:07;;;;;;;8.70;6.77;;;;;;;6.16;81.18;99173.38;4846876;29;20060;-83
2022/02/10 20:33:34;;;;;;;8.48;6.70;;;;;;;6.16;81.43;99181.34;4861442;29;20368;-83
2022/02/10 20:36:02;;;;;;;8.27;5.75;;;;;;;6.15;80.59;99179.72;4833221;29;20101;-82
2022/02/10 20:38:31;;;;;;;9.20;6.88;;;;;;;6.10;80.99;99166.28;4843350;29;20041;-83
2022/02/10 20:41:10;;;;;;;8.20;6.15;;;;;;;6.08;81.51;99171.00;4854998;29;20040;-82
2022/02/10 20:43:36;;;;;;;7.75;6.55;;;;;;;6.02;81.00;99159.41;4846264;29;20058;-83
2022/02/10 20:46:05;;;;;;;8.63;5.50;;;;;;;5.97;80.80;99148.63;4844844;29;20038;-82
2022/02/10 20:48:33;;;;;;;6.78;5.22;;;;;;;6.07;81.20;99157.97;4862622;29;20360;-83
2022/02/10 20:50:59;;;;;;;8.07;5.82;;;;;;;6.02;81.15;99159.41;4844372;29;20671;-83
2022/02/10 20:53:29;;;;;;;7.22;4.93;;;;;;;6.03;81.32;99158.38;4847771;29;20056;-82
2022/02/10 20:55:55;;;;;;;4.88;4.30;;;;;;;6.00;81.25;99153.53;4845558;29;20030;-83
2022/02/10 20:58:24;;;;;;;9.57;5.88;;;;;;;6.01;81.63;99163.06;4842151;29;20486;-83
2022/02/10 21:00:51;;;;;;;6.15;3.95;;;;;;;5.98;81.78;99155.53;4847964;29;20061;-83
2022/02/10 21:03:38;;;;;;;7.82;4.07;;;;;;;6.04;80.75;99157.38;4834054;29;20041;-83
2022/02/10 21:11:16;;;;;;;5.25;3.90;;;;;;;5.99;81.53;99165.13;4845381;29;20043;-82
2022/02/10 21:13:42;;;;;;;7.85;4.05;;;;;;;5.94;81.06;99158.84;4859669;29;20078;-82
2022/02/10 21:16:07;;;;;;;4.03;3.50;;;;;;;5.94;81.29;99166.81;4843870;29;20170;-82
2022/02/10 21:18:34;;;;;;;6.72;4.25;;;;;;;5.93;81.07;99168.63;4846098;29;20037;-82
2022/02/10 21:21:04;;;;;;;5.22;4.47;;;;;;;5.90;80.75;99168.22;4844883;29;20089;-82
2022/02/10 21:23:34;;;;;;;5.13;4.22;;;;;;;5.88;81.19;99163.13;4844416;29;20057;-82
2022/02/10 21:26:01;;;;;;;5.68;4.53;;;;;;;5.93;80.94;99181.88;4847397;29;20082;-82
2022/02/10 21:28:33;;;;;;;5.57;3.88;;;;;;;5.85;81.40;99168.06;4861056;29;20034;-83
2022/02/10 21:31:02;;;;;;;5.18;3.97;;;;;;;5.93;80.71;99176.56;4834259;29;20129;-84
2022/02/10 21:36:42;;;;;;;5.20;4.32;;;;;;;5.75;81.74;99152.56;4845438;29;20098;-83
2022/02/10 21:38:59;;;;;;;7.38;4.05;;;;;;;5.86;81.38;99185.56;4839472;29;20482;-83
2022/02/10 22:20:57;;;;;;;4.68;3.35;;;;;;;5.63;80.99;99183.38;4853443;29;20155;-83
2022/02/10 22:23:25;;;;;;;3.83;3.10;;;;;;;5.62;80.53;99176.44;4849733;29;20033;-83
2022/02/10 22:25:53;;;;;;;3.40;2.20;;;;;;;5.66;81.09;99187.41;4834318;29;20486;-83
2022/02/10 22:31:29;;;;;;;4.47;2.92;;;;;;;5.63;80.66;99193.16;4847324;29;20044;-83
2022/02/10 22:34:25;;;;;;;4.50;2.53;;;;;;;5.49;81.25;99170.38;4849997;29;20076;-83
2022/02/10 22:36:57;;;;;;;3.65;3.00;;;;;;;5.55;80.94;99177.50;4853100;29;20026;-83
2022/02/10 22:39:23;;;;;;;3.38;2.60;;;;;;;5.54;81.23;99181.16;4861976;29;20038;-83
2022/02/10 22:41:48;;;;;;;4.43;2.80;;;;;;;5.50;81.52;99186.06;4865803;29;20101;-83
2022/02/10 22:44:14;;;;;;;3.92;2.85;;;;;;;5.55;81.42;99188.09;4845696;29;20479;-83
2022/02/10 22:46:40;;;;;;;2.75;2.10;;;;;;;5.55;81.49;99188.88;4849560;29;20065;-83
2022/02/10 22:49:06;;;;;;;5.82;2.88;;;;;;;5.46;80.95;99170.81;4852820;29;20092;-83
2022/02/10 22:51:34;;;;;;;4.40;2.35;;;;;;;5.52;80.77;99172.63;4859023;29;26624;-83
2022/02/10 22:54:00;;;;;;;2.35;2.03;;;;;;;5.46;80.92;99157.56;4863268;29;20038;-83
2022/02/10 22:56:29;;;;;;;2.55;2.03;;;;;;;5.53;81.43;99160.97;4849232;29;20042;-83
2022/02/10 22:58:58;;;;;;;3.88;2.60;;;;;;;5.53;80.81;99172.41;4832614;29;20086;-83
2022/02/10 23:01:23;;;;;;;2.42;2.22;;;;;;;5.56;80.62;99179.94;4832326;29;20116;-83
2022/02/10 23:03:48;;;;;;;2.25;2.00;;;;;;;5.54;80.91;99181.16;4830507;29;20044;-83
2022/02/10 23:06:15;;;;;;;2.53;2.33;;;;;;;5.58;80.27;99174.41;4852095;29;20037;-83
2022/02/10 23:08:41;;;;;;;9.25;2.67;;;;;;;5.54;80.97;99179.31;4848807;29;20128;-83
2022/02/10 23:11:07;;;;;;;3.65;2.45;;;;;;;5.52;81.04;99181.38;4851379;29;20191;-83
2022/02/10 23:13:34;;;;;;;4.55;2.42;;;;;;;5.43;81.13;99161.44;4844538;29;20047;-83
2022/02/10 23:16:05;;;;;;;3.08;2.55;;;;;;;5.51;81.26;99179.72;4848776;29;20402;-83
2022/02/10 23:18:33;;;;;;;4.25;2.55;;;;;;;5.51;80.83;99174.44;4830797;29;20124;-83
2022/02/10 23:21:00;;;;;;;4.25;2.97;;;;;;;5.45;80.79;99163.88;4847758;29;20041;-83
2022/02/10 23:23:27;;;;;;;4.07;2.72;;;;;;;5.46;80.61;99171.59;4850943;29;20041;-83
2022/02/10 23:25:54;;;;;;;3.35;2.70;;;;;;;5.51;80.66;99171.78;4851346;29;20030;-85
2022/02/10 23:28:29;;;;;;;3.33;2.53;;;;;;;5.42;80.74;99162.44;4865143;29;20514;-84
2022/02/10 23:30:56;;;;;;;4.97;3.22;;;;;;;5.40;80.90;99167.13;4845795;29;20132;-83
2022/02/10 23:33:27;;;;;;;3.80;2.83;;;;;;;5.49;80.40;99178.31;4834880;29;20041;-83
2022/02/10 23:43:51;;;;;;;3.70;3.17;;;;;;;5.37;81.30;99179.97;4850619;29;20037;-83
2022/02/10 23:46:18;;;;;;;8.48;3.65;;;;;;;5.28;80.82;99164.34;4864036;29;20045;-83
2022/02/10 23:48:44;;;;;;;5.03;3.10;;;;;;;5.36;81.01;99184.44;4852539;29;20037;-83
2022/02/10 23:51:09;;;;;;;5.07;3.65;;;;;;;5.31;80.74;99178.97;4836088;29;20513;-84
2022/02/10 23:53:36;;;;;;;4.32;3.33;;;;;;;5.41;80.88;99195.25;4851968;29;20110;-83
2022/02/10 23:56:06;;;;;;;5.10;3.65;;;;;;;5.14;80.60;99154.78;4863410;29;20553;-83
2022/02/10 23:58:41;;;;;;;6.63;3.58;;;;;;;5.23;80.77;99174.72;4848454;29;20045;-83
